Time;durP1;ratioP1;P1;durP2;ratioP2;P2;SDS_P1;SDS_P2;PMS_P1;PMS_P2;Temp;Humidity;BMP_temperature;BMP_pressure;BME280_temperature;BME280_humidity;BME280_pressure;Samples;Min_cycle;Max_cycle;Signal;HPM_P1;HPM_P2
2022/07/06 03:56:32;;;;;;;5.97;5.37;;;;;;;16.77;100.00;100322.69;5531770;27;20123;-86
2022/07/06 03:59:36;;;;;;;7.03;5.65;;;;;;;16.76;100.00;100328.37;5326375;33;34902;-86
2022/07/06 04:02:39;;;;;;;6.68;5.60;;;;;;;16.76;100.00;100337.34;5313179;33;33543;-86
2022/07/06 04:05:42;;;;;;;7.28;5.32;;;;;;;16.85;99.60;100328.91;5326527;33;33695;-85
2022/07/06 04:08:45;;;;;;;6.95;5.50;;;;;;;16.80;99.96;100328.75;5327165;33;34611;-86
2022/07/06 04:11:48;;;;;;;5.97;5.10;;;;;;;16.88;99.85;100328.50;5326589;33;34576;-85
2022/07/06 04:14:51;;;;;;;5.20;4.70;;;;;;;16.93;98.86;100324.03;5326037;33;33487;-85
2022/07/06 04:17:55;;;;;;;7.18;5.30;;;;;;;17.01;98.29;100331.09;5326164;33;34093;-86
2022/07/06 04:20:59;;;;;;;5.93;5.32;;;;;;;17.14;98.25;100321.97;5327027;33;34096;-85
2022/07/06 04:24:03;;;;;;;5.68;4.60;;;;;;;17.34;96.57;100319.91;5359779;28;35429;-86
2022/07/06 04:27:06;;;;;;;5.55;4.72;;;;;;;17.47;95.70;100331.75;5337071;33;35478;-89
2022/07/06 04:30:09;;;;;;;7.30;4.82;;;;;;;17.61;94.08;100323.22;5335752;33;34336;-90
2022/07/06 04:33:14;;;;;;;5.20;4.70;;;;;;;17.73;93.06;100323.31;5336800;33;34087;-89
2022/07/06 04:36:18;;;;;;;5.57;4.45;;;;;;;17.87;92.21;100310.38;5336862;33;33875;-89
2022/07/06 04:39:21;;;;;;;4.60;4.05;;;;;;;18.02;91.59;100316.31;5336495;33;33705;-88
2022/07/06 04:42:28;;;;;;;6.50;4.47;;;;;;;18.12;90.68;100316.59;5364948;28;36172;-87
2022/07/06 04:45:31;;;;;;;4.75;4.32;;;;;;;18.30;89.75;100318.44;5337067;33;34719;-87
2022/07/06 04:48:38;;;;;;;5.53;4.20;;;;;;;18.44;89.04;100321.00;5336760;33;33985;-88
2022/07/06 04:51:42;;;;;;;5.82;4.15;;;;;;;18.52;87.99;100316.06;5322629;33;34308;-88
2022/07/06 04:54:45;;;;;;;6.32;4.10;;;;;;;18.59;87.39;100332.31;5385497;27;34082;-88
2022/07/06 04:57:49;;;;;;;4.78;4.37;;;;;;;18.65;86.69;100336.00;5365798;27;35448;-87
2022/07/06 05:00:53;;;;;;;5.00;3.75;;;;;;;18.69;86.62;100338.06;5339293;33;35544;-87
2022/07/06 05:03:58;;;;;;;4.45;4.05;;;;;;;18.74;85.70;100340.91;5340890;33;33930;-87
2022/07/06 05:07:01;;;;;;;4.45;3.85;;;;;;;18.82;85.44;100336.22;5341028;33;34313;-87
2022/07/06 05:10:05;;;;;;;4.05;3.65;;;;;;;18.95;84.43;100334.12;5341024;33;35322;-87
2022/07/06 05:13:08;;;;;;;4.97;3.58;;;;;;;19.08;83.70;100330.34;5338293;33;34439;-87
2022/07/06 05:16:12;;;;;;;3.92;3.62;;;;;;;19.23;82.90;100333.44;5339941;33;34344;-87
2022/07/06 05:19:15;;;;;;;4.97;3.47;;;;;;;19.40;82.10;100332.75;5340380;33;35076;-87
2022/07/06 05:22:19;;;;;;;4.53;3.50;;;;;;;19.45;82.36;100332.84;5340179;33;35011;-87
2022/07/06 05:25:22;;;;;;;3.83;3.50;;;;;;;19.64;80.63;100348.03;5340109;33;34381;-88
2022/07/06 05:28:25;;;;;;;3.97;3.55;;;;;;;19.79;80.58;100347.59;5360727;27;34116;-88
2022/07/06 05:31:35;;;;;;;3.70;3.40;;;;;;;20.01;79.30;100350.53;5380354;28;34021;-87
2022/07/06 05:34:39;;;;;;;4.07;3.40;;;;;;;20.09;78.15;100354.78;5338702;33;34973;-87
2022/07/06 05:37:43;;;;;;;4.95;3.50;;;;;;;20.26;78.12;100346.66;5331070;33;33824;-88
2022/07/06 05:40:46;;;;;;;5.45;3.42;;;;;;;20.21;77.48;100343.81;5321679;33;34435;-87
2022/07/06 05:43:49;;;;;;;5.78;3.42;;;;;;;20.33;77.19;100352.84;5321022;33;34749;-87
2022/07/06 05:50:11;;;;;;;3.60;3.30;;;;;;;20.40;76.53;100353.50;5318048;33;35800;-86
2022/07/06 05:50:17;;;;;;;4.65;3.22;;;;;;;20.38;76.46;100353.75;5316081;33;34619;-87
2022/07/06 05:53:20;;;;;;;3.45;3.20;;;;;;;20.46;76.09;100357.19;5315331;33;34051;-88
2022/07/06 05:56:24;;;;;;;3.85;3.50;;;;;;;20.49;76.31;100362.97;5321113;33;34055;-88
2022/07/06 05:59:27;;;;;;;3.92;3.53;;;;;;;20.73;75.12;100357.44;5319130;33;34737;-88
2022/07/06 06:02:41;;;;;;;3.80;3.30;;;;;;;20.92;74.79;100372.56;5319816;33;34038;-87
2022/07/06 06:05:45;;;;;;;3.53;3.22;;;;;;;21.12;73.45;100374.84;5318597;33;35744;-88
2022/07/06 06:08:48;;;;;;;3.70;3.40;;;;;;;21.19;72.91;100382.91;5317209;33;35232;-91
2022/07/06 06:11:51;;;;;;;3.67;3.28;;;;;;;21.35;71.90;100394.91;5317073;33;35349;-90
2022/07/06 06:14:54;;;;;;;3.50;3.20;;;;;;;21.48;71.49;100391.91;5315657;33;35468;-89
2022/07/06 06:17:57;;;;;;;5.72;3.22;;;;;;;21.45;70.59;100398.69;5312203;33;33838;-88
2022/07/06 06:20:59;;;;;;;3.83;3.53;;;;;;;21.56;70.85;100390.63;5329709;33;35332;-89
2022/07/06 06:24:02;;;;;;;5.25;3.47;;;;;;;21.60;70.39;100395.38;5316434;33;33868;-89
2022/07/06 06:27:05;;;;;;;4.03;3.62;;;;;;;21.68;70.01;100391.38;5311576;33;33878;-87
2022/07/06 06:30:09;;;;;;;3.47;3.17;;;;;;;21.73;69.76;100392.28;5314750;33;34932;-88
2022/07/06 06:33:17;;;;;;;4.12;3.55;;;;;;;22.01;69.10;100395.97;5313844;33;34061;-87
2022/07/06 06:36:20;;;;;;;4.67;3.80;;;;;;;22.01;68.31;100389.66;5312993;33;34399;-88
2022/07/06 06:39:23;;;;;;;3.90;3.03;;;;;;;22.00;68.58;100390.75;5314438;33;34090;-87
2022/07/06 06:42:26;;;;;;;4.07;3.50;;;;;;;22.02;68.37;100386.66;5314190;33;33729;-88
2022/07/06 06:45:28;;;;;;;4.22;3.60;;;;;;;22.13;68.22;100393.94;5313954;33;34561;-88
2022/07/06 06:48:31;;;;;;;5.72;3.40;;;;;;;22.30;67.80;100399.41;5312466;33;35168;-88
2022/07/06 06:51:34;;;;;;;3.55;3.22;;;;;;;22.44;66.16;100401.78;5312266;33;33856;-87
2022/07/06 06:54:40;;;;;;;4.62;3.67;;;;;;;22.46;66.61;100410.56;5311226;33;33791;-88
2022/07/06 06:57:43;;;;;;;3.53;3.22;;;;;;;22.72;66.24;100409.75;5311319;33;34035;-88
2022/07/06 07:00:47;;;;;;;4.78;4.28;;;;;;;22.62;66.01;100415.97;5311223;33;34265;-88
2022/07/06 07:03:50;;;;;;;4.87;3.37;;;;;;;22.72;65.80;100409.75;5310503;33;34401;-87
2022/07/06 07:06:53;;;;;;;4.28;3.15;;;;;;;22.58;65.38;100414.00;5309645;33;34237;-89
2022/07/06 07:09:56;;;;;;;4.65;3.50;;;;;;;22.68;65.03;100407.81;5309452;33;34152;-88
2022/07/06 07:12:59;;;;;;;3.67;3.37;;;;;;;22.81;65.45;100413.69;5302086;33;34338;-88
2022/07/06 07:16:02;;;;;;;3.83;3.42;;;;;;;22.95;64.41;100416.09;5305853;33;34582;-88
2022/07/06 07:19:06;;;;;;;4.30;3.80;;;;;;;23.03;63.87;100410.13;5308682;33;35327;-88
2022/07/06 07:22:08;;;;;;;4.35;3.85;;;;;;;23.14;63.70;100409.13;5308823;33;33805;-88
2022/07/06 07:25:11;;;;;;;3.75;3.33;;;;;;;23.25;62.87;100408.16;5310461;33;34176;-88
2022/07/06 07:28:14;;;;;;;4.20;3.10;;;;;;;23.24;62.43;100416.63;5293711;33;33226;-88
2022/07/06 07:31:17;;;;;;;4.03;3.45;;;;;;;23.29;62.01;100414.75;5288823;33;155786;-88
2022/07/06 07:34:20;;;;;;;6.12;3.70;;;;;;;23.49;61.38;100416.87;5294482;33;34134;-88
2022/07/06 07:37:23;;;;;;;3.55;3.20;;;;;;;23.70;60.76;100417.06;5295153;33;33695;-88
2022/07/06 07:40:27;;;;;;;3.10;2.90;;;;;;;23.92;59.80;100412.22;5299496;33;33909;-88
2022/07/06 07:43:29;;;;;;;3.90;3.37;;;;;;;24.05;59.40;100412.88;5310950;33;33765;-88
2022/07/06 07:46:32;;;;;;;3.15;2.85;;;;;;;24.25;58.57;100412.97;5292212;33;33778;-88
2022/07/06 07:49:35;;;;;;;4.18;3.50;;;;;;;24.48;57.54;100417.22;5285642;33;32905;-88
2022/07/06 07:52:38;;;;;;;3.65;3.03;;;;;;;24.63;56.92;100420.03;5296482;33;34130;-88
2022/07/06 07:55:41;;;;;;;3.87;2.80;;;;;;;24.78;55.60;100415.69;5295446;33;32660;-88
2022/07/06 07:58:44;;;;;;;3.10;2.80;;;;;;;24.94;55.22;100422.03;5306990;33;34637;-88
2022/07/06 08:01:48;;;;;;;3.00;2.53;;;;;;;24.91;54.88;100422.59;5309112;33;34152;-88
2022/07/06 08:04:51;;;;;;;3.40;2.10;;;;;;;24.89;53.43;100420.94;5309369;33;33854;-88
2022/07/06 08:07:53;;;;;;;2.28;2.10;;;;;;;25.23;52.62;100427.91;5308618;33;34071;-88
2022/07/06 08:10:56;;;;;;;2.25;2.15;;;;;;;25.42;51.29;100430.94;5309029;33;34293;-88
2022/07/06 08:14:19;;;;;;;2.50;1.75;;;;;;;25.30;50.72;100423.78;5308669;33;33887;-91
2022/07/06 08:17:22;;;;;;;3.70;2.00;;;;;;;25.26;51.09;100417.16;5298133;33;33504;-91
2022/07/06 08:20:24;;;;;;;1.83;1.73;;;;;;;25.58;50.26;100431.78;5308981;33;34703;-89
2022/07/06 08:23:27;;;;;;;1.70;1.60;;;;;;;26.17;48.20;100431.97;5308372;33;33649;-89
2022/07/06 08:26:30;;;;;;;2.00;1.80;;;;;;;26.43;46.71;100434.66;5307877;33;33918;-89
2022/07/06 08:29:33;;;;;;;1.75;1.65;;;;;;;26.37;46.51;100424.75;5311299;33;33982;-88
2022/07/06 08:32:41;;;;;;;2.10;1.90;;;;;;;26.16;46.45;100438.59;5309634;33;34040;-88
2022/07/06 08:36:04;;;;;;;2.55;2.35;;;;;;;26.30;46.91;100424.22;5310303;33;34211;-89
2022/07/06 08:39:07;;;;;;;1.85;1.75;;;;;;;26.27;48.76;100436.66;5310050;33;34379;-89
2022/07/06 08:42:13;;;;;;;2.35;2.15;;;;;;;26.40;46.53;100438.81;5312967;33;35324;-88
2022/07/06 08:45:16;;;;;;;1.35;1.25;;;;;;;26.76;45.31;100440.59;5309175;33;34951;-88
2022/07/06 08:48:23;;;;;;;1.65;1.55;;;;;;;27.03;43.46;100441.00;5307575;33;34029;-89
2022/07/06 08:51:27;;;;;;;1.75;1.65;;;;;;;27.17;42.25;100441.22;5306592;33;33943;-89
2022/07/06 08:54:32;;;;;;;1.90;1.80;;;;;;;27.48;43.19;100444.56;5302121;33;34636;-89
2022/07/06 08:57:35;;;;;;;1.67;1.58;;;;;;;27.40;41.86;100441.59;5312085;33;34382;-89
2022/07/06 09:00:39;;;;;;;2.35;1.80;;;;;;;27.82;42.65;100438.25;5315247;33;35387;-88
2022/07/06 09:03:43;;;;;;;2.00;1.80;;;;;;;28.17;41.60;100433.41;5316693;33;33508;-89
2022/07/06 09:06:48;;;;;;;3.70;2.05;;;;;;;28.52;40.98;100434.16;5312255;33;34273;-89
2022/07/06 09:09:52;;;;;;;1.92;1.60;;;;;;;28.55;40.01;100437.16;5307150;33;34102;-88
2022/07/06 09:13:06;;;;;;;1.40;1.30;;;;;;;28.71;39.34;100421.97;5306891;33;34605;-88
2022/07/06 09:16:13;;;;;;;1.62;1.52;;;;;;;28.51;39.65;100430.56;5307233;33;34509;-89
2022/07/06 09:19:36;;;;;;;1.60;1.50;;;;;;;28.57;39.20;100432.12;5294025;33;32507;-89
2022/07/06 09:22:40;;;;;;;3.15;2.17;;;;;;;28.56;39.89;100426.91;5312444;33;35209;-88
2022/07/06 09:25:48;;;;;;;2.72;2.20;;;;;;;28.23;40.57;100421.19;5319485;33;34370;-89
2022/07/06 09:28:52;;;;;;;3.67;2.20;;;;;;;28.03;41.45;100428.59;5308534;33;34277;-88
2022/07/06 09:31:59;;;;;;;2.25;1.90;;;;;;;28.18;39.79;100424.00;5301654;33;33956;-89
2022/07/06 09:35:02;;;;;;;3.28;1.90;;;;;;;28.16;39.29;100429.00;5306243;33;35188;-91
2022/07/06 09:38:12;;;;;;;6.32;1.95;;;;;;;27.71;40.00;100431.13;5299144;33;32676;-89
2022/07/06 09:41:31;;;;;;;2.22;2.03;;;;;;;28.09;40.21;100423.00;5300231;33;32779;-86
2022/07/06 09:44:40;;;;;;;3.70;2.25;;;;;;;28.19;39.02;100426.47;5315300;33;34588;-87
2022/07/06 09:47:47;;;;;;;2.17;1.98;;;;;;;28.25;38.87;100422.53;5310639;33;35538;-87
2022/07/06 09:50:53;;;;;;;2.57;2.13;;;;;;;28.41;39.14;100422.34;5307297;33;34440;-87
2022/07/06 09:53:59;;;;;;;2.03;1.92;;;;;;;28.50;38.43;100434.47;5300801;33;33197;-88
2022/07/06 09:57:03;;;;;;;2.40;2.20;;;;;;;28.68;38.14;100430.06;5306725;33;34125;-88
2022/07/06 10:00:11;;;;;;;2.00;1.90;;;;;;;28.87;37.45;100442.00;5301320;33;32518;-88
2022/07/06 10:03:17;;;;;;;2.22;2.03;;;;;;;29.06;36.75;100432.88;5310358;33;34954;-87
2022/07/06 10:06:20;;;;;;;2.25;1.80;;;;;;;28.88;37.18;100440.06;5311160;33;33818;-87
2022/07/06 10:09:27;;;;;;;2.28;2.08;;;;;;;29.13;36.65;100433.31;5310741;33;35710;-87
2022/07/06 10:12:33;;;;;;;5.68;2.45;;;;;;;29.37;35.53;100420.19;5306863;33;34795;-85
2022/07/06 10:15:38;;;;;;;2.00;1.80;;;;;;;29.75;35.21;100428.47;5304605;33;33647;-84
2022/07/06 10:18:41;;;;;;;3.35;2.40;;;;;;;29.74;34.81;100432.34;5304231;33;33865;-84
2022/07/06 10:21:45;;;;;;;2.30;2.10;;;;;;;29.83;34.98;100418.59;5299302;33;33945;-84
2022/07/06 10:24:49;;;;;;;3.33;2.03;;;;;;;30.33;34.11;100420.72;5301665;33;33575;-86
2022/07/06 10:27:53;;;;;;;2.37;2.17;;;;;;;30.40;33.68;100415.56;5300268;33;34149;-84
2022/07/06 10:30:56;;;;;;;2.87;2.20;;;;;;;30.56;34.27;100416.06;5303009;33;33967;-86
2022/07/06 10:34:01;;;;;;;2.08;1.80;;;;;;;30.78;32.87;100412.53;5300278;33;34579;-88
2022/07/06 10:37:04;;;;;;;3.80;1.62;;;;;;;31.38;31.76;100418.62;5303991;33;35449;-89
2022/07/06 10:43:35;;;;;;;2.08;1.85;;;;;;;31.07;30.40;100429.66;5306519;33;33827;-87
2022/07/06 10:46:38;;;;;;;1.80;1.70;;;;;;;31.57;30.00;100434.34;5314772;33;32533;-89
2022/07/06 10:49:49;;;;;;;1.73;1.62;;;;;;;30.91;30.50;100431.97;5304972;33;32236;-90
2022/07/06 10:53:02;;;;;;;3.47;2.08;;;;;;;30.93;29.16;100429.72;5310163;33;32677;-87
2022/07/06 10:56:10;;;;;;;2.45;2.20;;;;;;;31.29;29.62;100425.25;5312681;33;33798;-86
2022/07/06 10:59:15;;;;;;;2.40;2.20;;;;;;;31.59;28.80;100430.09;5302259;33;31621;-85
2022/07/06 11:02:23;;;;;;;2.40;2.17;;;;;;;32.25;27.86;100435.03;5298977;33;33001;-87
2022/07/06 11:05:42;;;;;;;3.45;1.98;;;;;;;32.70;26.51;100418.97;5311243;33;32399;-87
2022/07/06 11:09:07;;;;;;;2.47;2.03;;;;;;;32.47;27.22;100423.00;5304465;33;34406;-83
2022/07/06 11:12:20;;;;;;;1.65;1.55;;;;;;;32.62;27.16;100411.41;5299726;33;34456;-83
2022/07/06 11:15:48;;;;;;;2.05;1.92;;;;;;;33.06;24.97;100415.06;5311338;33;34430;-84
2022/07/06 11:19:11;;;;;;;2.03;1.70;;;;;;;33.50;23.82;100418.62;5296821;33;32834;-85
2022/07/06 11:22:16;;;;;;;1.77;1.67;;;;;;;34.01;22.98;100405.69;5314534;33;34349;-86
2022/07/06 11:25:19;;;;;;;2.65;1.87;;;;;;;33.82;23.54;100414.47;5314417;33;33902;-85
2022/07/06 11:28:23;;;;;;;1.58;1.48;;;;;;;34.37;22.37;100412.78;5296876;33;32783;-85
2022/07/06 11:31:26;;;;;;;2.05;1.90;;;;;;;35.02;21.87;100412.53;5297539;33;33765;-85
2022/07/06 11:34:34;;;;;;;4.55;1.67;;;;;;;35.64;21.17;100420.06;5310149;33;33706;-90
2022/07/06 11:37:37;;;;;;;1.70;1.60;;;;;;;36.98;19.68;100410.84;5311037;33;34677;-90
2022/07/06 11:40:40;;;;;;;2.00;1.25;;;;;;;36.35;19.73;100418.06;5291169;33;32158;-91
2022/07/06 11:43:45;;;;;;;1.62;1.52;;;;;;;37.13;18.95;100409.31;5313459;33;34419;-86
2022/07/06 11:46:47;;;;;;;2.00;1.67;;;;;;;37.34;18.14;100399.84;5311618;33;34775;-86
2022/07/06 11:49:52;;;;;;;2.12;1.90;;;;;;;37.36;18.55;100408.75;5305392;33;34863;-85
2022/07/06 11:52:55;;;;;;;2.25;2.08;;;;;;;36.95;18.96;100410.75;5290329;33;34401;-85
2022/07/06 11:56:03;;;;;;;2.37;1.90;;;;;;;36.59;19.20;100422.84;5300430;33;34208;-85
2022/07/06 11:59:08;;;;;;;3.10;2.30;;;;;;;37.32;18.96;100419.03;5302579;33;32330;-85
2022/07/06 12:02:13;;;;;;;2.08;1.98;;;;;;;39.12;18.05;100414.72;5297840;33;32491;-85
2022/07/06 12:05:29;;;;;;;2.40;1.80;;;;;;;39.41;17.25;100412.50;5309331;33;34576;-83
2022/07/06 12:08:35;;;;;;;2.58;2.12;;;;;;;39.33;17.33;100413.56;5309793;33;34169;-84
2022/07/06 12:11:39;;;;;;;2.20;2.00;;;;;;;40.58;16.21;100404.47;5294889;33;32621;-84
2022/07/06 12:14:42;;;;;;;2.12;1.95;;;;;;;38.59;17.82;100413.53;5295261;33;32539;-84
2022/07/06 12:17:48;;;;;;;1.95;1.85;;;;;;;36.26;19.30;100420.97;5296592;33;33923;-86
2022/07/06 12:20:52;;;;;;;2.15;2.05;;;;;;;33.77;21.60;100416.63;5309501;33;33909;-86
2022/07/06 12:23:57;;;;;;;2.58;2.17;;;;;;;33.03;22.79;100412.94;5309764;33;34239;-85
2022/07/06 12:27:10;;;;;;;2.72;2.53;;;;;;;33.47;22.37;100419.31;5307708;33;33873;-86
2022/07/06 12:30:14;;;;;;;2.15;1.95;;;;;;;36.09;19.67;100414.44;5308955;33;33536;-86
2022/07/06 12:33:26;;;;;;;2.22;2.12;;;;;;;37.88;18.20;100408.56;5297335;33;34147;-85
2022/07/06 12:36:30;;;;;;;2.20;2.00;;;;;;;37.15;18.56;100409.78;5302561;33;34879;-87
2022/07/06 12:39:44;;;;;;;2.22;2.03;;;;;;;36.27;18.98;100412.25;5302250;33;34251;-87
2022/07/06 12:42:47;;;;;;;2.40;2.20;;;;;;;35.78;19.31;100416.94;5307911;33;34376;-86
2022/07/06 12:45:50;;;;;;;2.28;2.08;;;;;;;38.24;17.75;100415.12;5293061;33;32732;-86
2022/07/06 12:48:54;;;;;;;3.62;1.95;;;;;;;37.51;17.80;100407.97;5302297;33;34253;-86
2022/07/06 12:52:02;;;;;;;2.00;1.90;;;;;;;37.41;17.52;100400.03;5301150;33;33902;-85
2022/07/06 12:55:07;;;;;;;1.90;1.80;;;;;;;38.14;16.44;100412.03;5308185;33;34312;-83
2022/07/06 12:58:19;;;;;;;1.70;1.60;;;;;;;38.95;16.01;100409.53;5304770;33;34020;-87
2022/07/06 13:01:22;;;;;;;2.47;1.77;;;;;;;40.30;14.66;100408.47;5307680;33;34591;-90
2022/07/06 13:04:27;;;;;;;1.77;1.60;;;;;;;39.81;14.57;100397.16;5308308;33;33964;-87
2022/07/06 13:07:32;;;;;;;1.62;1.52;;;;;;;40.44;14.76;100407.06;5296301;33;32031;-87
2022/07/06 13:10:35;;;;;;;1.67;1.58;;;;;;;38.61;15.75;100405.53;5308599;33;33900;-86
2022/07/06 13:13:44;;;;;;;1.77;1.67;;;;;;;39.77;14.90;100416.81;5308834;33;33837;-86
2022/07/06 13:16:48;;;;;;;1.45;1.33;;;;;;;40.67;14.31;100399.37;5308546;33;34084;-86
2022/07/06 13:19:51;;;;;;;2.37;1.40;;;;;;;41.09;13.75;100406.78;5295108;33;32856;-84
2022/07/06 13:22:54;;;;;;;2.05;1.50;;;;;;;41.25;13.70;100403.75;5315434;33;34028;-84
2022/07/06 13:25:57;;;;;;;2.25;1.40;;;;;;;40.76;14.18;100404.72;5309400;33;35489;-84
2022/07/06 13:29:01;;;;;;;1.25;1.15;;;;;;;41.85;13.31;100397.91;5311674;33;34751;-84
2022/07/06 13:32:05;;;;;;;1.52;1.42;;;;;;;41.28;13.55;100407.84;5309375;33;33831;-85
2022/07/06 13:35:09;;;;;;;1.02;1.02;;;;;;;41.83;13.66;100410.81;5294670;33;34248;-84
2022/07/06 13:38:12;;;;;;;1.80;1.50;;;;;;;42.23;13.79;100406.34;5296835;33;32996;-84
2022/07/06 13:41:17;;;;;;;4.62;1.62;;;;;;;41.10;15.64;100399.13;5309366;33;33547;-84
2022/07/06 13:44:20;;;;;;;2.22;1.30;;;;;;;39.61;17.25;100391.56;5312089;33;33772;-84
2022/07/06 13:47:24;;;;;;;2.47;1.48;;;;;;;40.15;16.78;100400.16;5308689;33;34690;-84
2022/07/06 13:50:31;;;;;;;3.10;1.58;;;;;;;39.08;17.19;100402.59;5293205;33;32514;-84
2022/07/06 13:53:35;;;;;;;1.80;1.62;;;;;;;39.68;16.57;100410.59;5307956;33;34791;-84
2022/07/06 13:56:39;;;;;;;1.48;1.37;;;;;;;40.67;15.92;100407.84;5306248;33;34116;-84
2022/07/06 13:59:42;;;;;;;1.35;1.35;;;;;;;39.62;16.34;100420.56;5305997;33;34201;-84
2022/07/06 14:02:45;;;;;;;1.60;1.50;;;;;;;39.39;16.78;100412.06;5292448;33;32180;-83
2022/07/06 14:05:48;;;;;;;2.08;1.20;;;;;;;38.80;16.30;100416.81;5306399;33;34183;-83
2022/07/06 14:08:51;;;;;;;1.62;1.42;;;;;;;36.68;18.38;100426.34;5307784;33;35399;-83
2022/07/06 14:11:54;;;;;;;1.70;1.60;;;;;;;35.06;20.06;100410.72;5307550;33;34150;-85
2022/07/06 14:14:58;;;;;;;1.50;1.40;;;;;;;33.94;21.38;100419.38;5305956;33;34316;-85
2022/07/06 14:18:01;;;;;;;1.98;1.60;;;;;;;33.00;22.32;100418.34;5307656;33;34335;-86
2022/07/06 14:21:03;;;;;;;1.37;1.27;;;;;;;32.67;23.06;100433.56;5308066;33;33581;-86
2022/07/06 14:24:06;;;;;;;1.40;1.30;;;;;;;32.72;22.95;100435.34;5307924;33;34013;-86
2022/07/06 14:27:09;;;;;;;3.20;1.67;;;;;;;32.12;23.29;100430.37;5307656;33;33971;-86
2022/07/06 14:30:12;;;;;;;2.65;1.70;;;;;;;31.34;24.04;100427.91;5307470;33;33603;-86
2022/07/06 14:33:15;;;;;;;3.05;1.80;;;;;;;30.84;25.67;100430.78;5307648;33;34471;-86
2022/07/06 14:36:18;;;;;;;1.55;1.45;;;;;;;30.72;25.74;100429.31;5294486;33;32575;-86
2022/07/06 14:39:20;;;;;;;4.45;1.92;;;;;;;30.38;25.96;100417.81;5307826;33;35309;-86
2022/07/06 14:42:23;;;;;;;2.85;1.55;;;;;;;30.17;26.74;100409.87;5309246;33;33919;-86
2022/07/06 14:45:26;;;;;;;1.75;1.65;;;;;;;30.30;26.99;100427.69;5309078;33;33978;-86
2022/07/06 14:48:29;;;;;;;2.10;1.90;;;;;;;30.18;26.60;100427.37;5307573;33;34857;-86
2022/07/06 14:51:32;;;;;;;1.60;1.50;;;;;;;29.78;26.98;100419.53;5295026;33;32397;-86
2022/07/06 14:54:36;;;;;;;1.52;1.42;;;;;;;29.55;27.06;100406.59;5308645;33;35010;-86
2022/07/06 14:57:38;;;;;;;1.40;1.30;;;;;;;29.68;26.89;100421.66;5311556;33;33734;-86
2022/07/06 15:00:41;;;;;;;1.40;1.30;;;;;;;29.67;26.38;100411.69;5314231;33;33681;-86
2022/07/06 15:03:45;;;;;;;1.02;1.02;;;;;;;29.52;26.58;100416.34;5307001;33;34250;-90
2022/07/06 15:06:48;;;;;;;1.10;1.10;;;;;;;29.49;26.62;100416.94;5307474;33;33603;-89
2022/07/06 15:09:58;;;;;;;0.95;0.73;;;;;;;29.21;25.66;100416.00;5300812;33;34945;-86
2022/07/06 15:13:02;;;;;;;1.10;1.00;;;;;;;29.18;26.31;100422.16;5308401;33;33577;-86
2022/07/06 15:16:04;;;;;;;1.10;1.10;;;;;;;29.11;26.22;100414.22;5308044;33;34143;-86
2022/07/06 15:19:07;;;;;;;2.70;1.00;;;;;;;29.00;25.77;100409.94;5307457;33;35054;-86
2022/07/06 15:22:11;;;;;;;1.27;1.17;;;;;;;28.86;26.02;100420.13;5307676;33;34117;-86
2022/07/06 15:25:14;;;;;;;1.05;1.00;;;;;;;28.73;26.29;100423.66;5307779;33;34155;-86
2022/07/06 15:28:19;;;;;;;1.27;1.17;;;;;;;28.57;26.28;100420.25;5307456;33;34417;-86
2022/07/06 15:31:22;;;;;;;0.90;0.90;;;;;;;28.53;26.27;100417.25;5307069;33;34500;-86
2022/07/06 15:34:25;;;;;;;0.93;0.93;;;;;;;28.27;26.23;100427.78;5307312;33;33995;-85
2022/07/06 15:37:28;;;;;;;1.00;1.00;;;;;;;28.15;26.33;100433.72;5307532;33;33929;-84
2022/07/06 15:40:37;;;;;;;1.33;1.10;;;;;;;28.11;26.51;100424.38;5307866;33;34679;-85
2022/07/06 15:43:45;;;;;;;1.37;1.05;;;;;;;27.96;26.99;100422.59;5308067;33;35357;-84
2022/07/06 15:46:56;;;;;;;2.85;1.08;;;;;;;28.03;26.90;100434.13;5307876;33;34956;-84
2022/07/06 15:49:59;;;;;;;1.75;1.15;;;;;;;27.75;26.84;100430.22;5307591;33;34477;-84
2022/07/06 15:53:03;;;;;;;1.12;1.12;;;;;;;27.69;27.03;100430.56;5307880;33;34523;-84
2022/07/06 15:56:06;;;;;;;2.78;1.05;;;;;;;27.65;27.86;100426.75;5307900;33;34066;-84
2022/07/06 15:59:11;;;;;;;1.20;1.00;;;;;;;27.62;27.83;100435.62;5307519;33;34672;-84
2022/07/06 16:02:14;;;;;;;1.10;1.00;;;;;;;27.56;27.95;100432.09;5309794;33;34096;-84
2022/07/06 16:05:21;;;;;;;1.20;1.15;;;;;;;27.37;28.36;100440.25;5308486;33;34041;-84
